Time;durP1;ratioP1;P1;durP2;ratioP2;P2;SDS_P1;SDS_P2;PMS_P1;PMS_P2;Temp;Humidity;BMP_temperature;BMP_pressure;BME280_temperature;BME280_humidity;BME280_pressure;Samples;Min_cycle;Max_cycle;Signal;HPM_P1;HPM_P2
2023/09/12 00:01:52;;;;;;;0.00;0.00;;;;;;;;;;5087215;28;20254;-84
2023/09/12 00:04:20;;;;;;;0.10;0.10;;;;;;;;;;5086828;28;20204;-84
2023/09/12 00:06:46;;;;;;;0.10;0.10;;;;;;;;;;5087067;28;20254;-83
2023/09/12 00:09:13;;;;;;;0.00;0.00;;;;;;;;;;5087249;28;20207;-83
2023/09/12 00:11:39;;;;;;;0.10;0.10;;;;;;;;;;5086118;28;20262;-84
2023/09/12 00:14:08;;;;;;;0.00;0.00;;;;;;;;;;5088010;28;20233;-82
2023/09/12 00:16:34;;;;;;;0.00;0.00;;;;;;;;;;5085233;28;20269;-83
2023/09/12 00:19:01;;;;;;;0.00;0.00;;;;;;;;;;5088556;28;20219;-83
2023/09/12 00:21:29;;;;;;;0.00;0.00;;;;;;;;;;5084371;28;20257;-82
2023/09/12 00:23:55;;;;;;;0.00;0.00;;;;;;;;;;5088980;28;20426;-83
2023/09/12 00:26:21;;;;;;;0.00;0.00;;;;;;;;;;5083534;28;20246;-83
2023/09/12 00:28:48;;;;;;;2.10;1.08;;;;;;;;;;5090238;28;20213;-83
2023/09/12 00:31:14;;;;;;;0.08;0.08;;;;;;;;;;5082232;28;20297;-83
2023/09/12 00:33:41;;;;;;;0.00;0.00;;;;;;;;;;5091103;28;20205;-83
2023/09/12 00:36:07;;;;;;;0.10;0.10;;;;;;;;;;5081382;28;20269;-83
2023/09/12 00:38:35;;;;;;;0.03;0.03;;;;;;;;;;5091909;28;20206;-83
2023/09/12 00:41:01;;;;;;;0.00;0.00;;;;;;;;;;5080642;28;20466;-82
2023/09/12 00:43:27;;;;;;;0.00;0.00;;;;;;;;;;5092179;28;20567;-83
2023/09/12 00:45:54;;;;;;;0.00;0.00;;;;;;;;;;5079830;28;20324;-83
2023/09/12 00:48:21;;;;;;;0.10;0.10;;;;;;;;;;5093458;28;20253;-83
2023/09/12 00:50:48;;;;;;;0.10;0.10;;;;;;;;;;5078719;28;20258;-83
2023/09/12 00:53:14;;;;;;;0.00;0.00;;;;;;;;;;5094236;28;20237;-83
2023/09/12 00:55:45;;;;;;;0.00;0.00;;;;;;;;;;5077766;28;20257;-83
2023/09/12 00:58:11;;;;;;;0.00;0.00;;;;;;;;;;5094650;28;20230;-84
2023/09/12 01:00:38;;;;;;;0.00;0.00;;;;;;;;;;5077529;28;20253;-84
2023/09/12 01:03:05;;;;;;;0.10;0.10;;;;;;;;;;5095575;28;20235;-83
2023/09/12 01:05:31;;;;;;;0.00;0.00;;;;;;;;;;5076766;28;20460;-83
2023/09/12 01:07:58;;;;;;;0.00;0.00;;;;;;;;;;5096051;28;20213;-83
2023/09/12 01:10:24;;;;;;;0.00;0.00;;;;;;;;;;5075710;28;20233;-83
2023/09/12 01:12:53;;;;;;;0.00;0.00;;;;;;;;;;5096970;28;20261;-84
2023/09/12 01:15:19;;;;;;;0.00;0.00;;;;;;;;;;5075005;28;20404;-84
2023/09/12 01:17:46;;;;;;;0.00;0.00;;;;;;;;;;5097821;28;20205;-84
2023/09/12 01:20:15;;;;;;;0.00;0.00;;;;;;;;;;5074054;28;20266;-83
2023/09/12 01:22:56;;;;;;;0.10;0.10;;;;;;;;;;5098056;28;20237;-84
2023/09/12 01:25:37;;;;;;;0.10;0.10;;;;;;;;;;5073019;28;20391;-84
2023/09/12 01:28:06;;;;;;;0.10;0.10;;;;;;;;;;5091910;28;20211;-83
2023/09/12 01:30:33;;;;;;;0.03;0.03;;;;;;;;;;5076551;28;20238;-84
2023/09/12 01:33:00;;;;;;;0.00;0.00;;;;;;;;;;5095803;28;20215;-83
2023/09/12 01:35:26;;;;;;;0.05;0.05;;;;;;;;;;5076318;28;20234;-83
2023/09/12 01:37:53;;;;;;;0.10;0.10;;;;;;;;;;5100808;28;20279;-83
2023/09/12 01:40:21;;;;;;;0.10;0.10;;;;;;;;;;5078728;28;20519;-83
2023/09/12 01:42:47;;;;;;;0.00;0.00;;;;;;;;;;5101081;28;20222;-83
2023/09/12 01:45:17;;;;;;;0.00;0.00;;;;;;;;;;5077629;28;20230;-83
2023/09/12 01:47:46;;;;;;;0.00;0.00;;;;;;;;;;5101872;28;20229;-83
2023/09/12 01:50:13;;;;;;;0.10;0.10;;;;;;;;;;5077536;28;20258;-83
2023/09/12 01:52:39;;;;;;;0.00;0.00;;;;;;;;;;5101880;28;20225;-83
2023/09/12 01:55:09;;;;;;;0.10;0.10;;;;;;;;;;5087238;28;20273;-81
2023/09/12 01:57:35;;;;;;;0.80;0.80;;;;;;;;;;5075480;28;20260;-83
2023/09/12 02:00:02;;;;;;;0.08;0.08;;;;;;;;;;5087230;28;20420;-82
2023/09/12 02:02:29;;;;;;;0.00;0.00;;;;;;;;;;5092351;28;20329;-83
2023/09/12 02:05:10;;;;;;;0.08;0.08;;;;;;;;;;5087142;28;20286;-83
2023/09/12 02:07:39;;;;;;;0.17;0.17;;;;;;;;;;5074985;28;20214;-83
2023/09/12 02:10:05;;;;;;;0.10;0.10;;;;;;;;;;5086911;28;20206;-82
2023/09/12 02:12:32;;;;;;;0.00;0.00;;;;;;;;;;5092052;28;20243;-83
2023/09/12 02:14:58;;;;;;;2.10;2.00;;;;;;;;;;5087084;28;20437;-83
2023/09/12 02:17:25;;;;;;;0.10;0.10;;;;;;;;;;5091856;28;20250;-83
2023/09/12 02:19:53;;;;;;;0.00;0.00;;;;;;;;;;5086988;28;20238;-83
2023/09/12 02:22:19;;;;;;;0.15;0.15;;;;;;;;;;5091970;28;20242;-83
2023/09/12 02:24:46;;;;;;;0.00;0.00;;;;;;;;;;5086724;28;20407;-83
2023/09/12 02:27:12;;;;;;;0.10;0.10;;;;;;;;;;5091814;28;20296;-83
2023/09/12 02:29:39;;;;;;;0.00;0.00;;;;;;;;;;5086685;28;20244;-84
2023/09/12 02:32:06;;;;;;;0.08;0.08;;;;;;;;;;5091576;28;20238;-83
2023/09/12 02:34:33;;;;;;;0.00;0.00;;;;;;;;;;5086660;28;20245;-83
2023/09/12 02:37:01;;;;;;;0.00;0.00;;;;;;;;;;5090522;28;20241;-83
2023/09/12 02:39:27;;;;;;;0.00;0.00;;;;;;;;;;5087382;28;20211;-83
2023/09/12 02:41:53;;;;;;;0.10;0.10;;;;;;;;;;5089903;28;20249;-83
2023/09/12 02:44:20;;;;;;;0.10;0.10;;;;;;;;;;5087797;28;20299;-83
2023/09/12 02:46:48;;;;;;;0.10;0.10;;;;;;;;;;5088627;28;20276;-83
2023/09/12 02:49:14;;;;;;;0.30;0.30;;;;;;;;;;5088493;28;20249;-82
2023/09/12 02:51:41;;;;;;;0.10;0.10;;;;;;;;;;5087672;28;20263;-83
2023/09/12 02:54:09;;;;;;;0.10;0.10;;;;;;;;;;5089607;28;20270;-84
2023/09/12 02:56:35;;;;;;;0.00;0.00;;;;;;;;;;5086990;28;20351;-84
2023/09/12 02:59:01;;;;;;;0.03;0.03;;;;;;;;;;5090119;28;20203;-82
2023/09/12 03:01:28;;;;;;;0.10;0.10;;;;;;;;;;5085974;28;20483;-83
2023/09/12 03:03:54;;;;;;;0.08;0.08;;;;;;;;;;5091043;28;20206;-83
2023/09/12 03:06:21;;;;;;;0.00;0.00;;;;;;;;;;5084821;28;20246;-83
2023/09/12 03:08:48;;;;;;;0.00;0.00;;;;;;;;;;5091983;28;20214;-83
2023/09/12 03:11:15;;;;;;;0.08;0.08;;;;;;;;;;5083517;28;20259;-82
2023/09/12 03:13:42;;;;;;;0.10;0.10;;;;;;;;;;5092593;28;20450;-83
2023/09/12 03:16:10;;;;;;;0.00;0.00;;;;;;;;;;5083036;28;20253;-83
2023/09/12 03:18:36;;;;;;;0.00;0.00;;;;;;;;;;5092984;28;20212;-83
2023/09/12 03:21:03;;;;;;;0.00;0.00;;;;;;;;;;5082339;28;20300;-83
2023/09/12 03:23:29;;;;;;;0.00;0.00;;;;;;;;;;5093606;28;20427;-83
2023/09/12 03:25:56;;;;;;;0.00;0.00;;;;;;;;;;5081105;28;20502;-83
2023/09/12 03:28:24;;;;;;;0.10;0.10;;;;;;;;;;5094468;28;20241;-84
2023/09/12 03:30:50;;;;;;;0.00;0.00;;;;;;;;;;5080418;28;20491;-83
2023/09/12 03:33:16;;;;;;;1.02;1.02;;;;;;;;;;5095225;28;20223;-85
2023/09/12 03:35:43;;;;;;;0.00;0.00;;;;;;;;;;5079180;28;20244;-83
2023/09/12 03:38:10;;;;;;;0.05;0.05;;;;;;;;;;5095982;28;20206;-82
2023/09/12 03:40:37;;;;;;;0.10;0.10;;;;;;;;;;5078499;28;20328;-83
2023/09/12 03:43:03;;;;;;;0.00;0.00;;;;;;;;;;5096894;28;20239;-83
2023/09/12 03:45:31;;;;;;;0.00;0.00;;;;;;;;;;5077871;28;20444;-83
2023/09/12 03:47:57;;;;;;;0.00;0.00;;;;;;;;;;5097769;28;20231;-84
2023/09/12 03:50:24;;;;;;;0.10;0.10;;;;;;;;;;5076783;28;20273;-83
2023/09/12 03:52:50;;;;;;;0.10;0.10;;;;;;;;;;5098236;28;20293;-84
2023/09/12 03:55:17;;;;;;;0.05;0.05;;;;;;;;;;5075119;28;20217;-83
2023/09/12 03:57:43;;;;;;;0.30;0.30;;;;;;;;;;5099300;28;20438;-84
2023/09/12 04:00:10;;;;;;;0.10;0.10;;;;;;;;;;5084374;28;20452;-83
2023/09/12 04:02:38;;;;;;;0.10;0.10;;;;;;;;;;5089963;28;20242;-84
2023/09/12 04:05:04;;;;;;;0.00;0.00;;;;;;;;;;5084904;28;20216;-84
2023/09/12 04:07:31;;;;;;;0.00;0.00;;;;;;;;;;5089871;28;20273;-82
2023/09/12 04:09:57;;;;;;;0.10;0.10;;;;;;;;;;5084353;28;20233;-84
2023/09/12 04:12:23;;;;;;;0.00;0.00;;;;;;;;;;5089733;28;20393;-83
2023/09/12 04:14:50;;;;;;;0.08;0.08;;;;;;;;;;5084737;28;20443;-84
2023/09/12 04:17:16;;;;;;;0.10;0.10;;;;;;;;;;5089787;28;20264;-85
2023/09/12 04:19:44;;;;;;;0.10;0.10;;;;;;;;;;5084611;28;20447;-84
2023/09/12 04:22:10;;;;;;;0.10;0.10;;;;;;;;;;5089585;28;20247;-84
2023/09/12 04:24:37;;;;;;;0.00;0.00;;;;;;;;;;5084459;28;20233;-85
2023/09/12 04:27:04;;;;;;;0.10;0.10;;;;;;;;;;5089040;28;20477;-85
2023/09/12 04:29:33;;;;;;;0.08;0.08;;;;;;;;;;5084652;28;20213;-85
2023/09/12 04:31:59;;;;;;;0.10;0.10;;;;;;;;;;5088435;28;20485;-82
2023/09/12 04:34:26;;;;;;;0.05;0.05;;;;;;;;;;5085395;28;20204;-85
2023/09/12 04:36:54;;;;;;;0.10;0.10;;;;;;;;;;5087233;28;20247;-83
2023/09/12 04:39:20;;;;;;;0.08;0.08;;;;;;;;;;5085965;28;20290;-84
2023/09/12 04:41:47;;;;;;;0.05;0.05;;;;;;;;;;5086449;28;20239;-84
2023/09/12 04:44:13;;;;;;;0.10;0.10;;;;;;;;;;5086680;28;20245;-84
2023/09/12 04:46:40;;;;;;;0.10;0.10;;;;;;;;;;5085488;28;20544;-84
2023/09/12 04:49:06;;;;;;;0.25;0.25;;;;;;;;;;5087699;28;20443;-84
2023/09/12 04:51:32;;;;;;;0.00;0.00;;;;;;;;;;5084584;28;20265;-84
2023/09/12 04:54:00;;;;;;;0.10;0.10;;;;;;;;;;5088323;28;20273;-84
2023/09/12 04:56:27;;;;;;;0.05;0.05;;;;;;;;;;5083720;28;20624;-84
2023/09/12 04:58:53;;;;;;;0.10;0.10;;;;;;;;;;5089318;28;20318;-85
2023/09/12 05:01:20;;;;;;;0.10;0.10;;;;;;;;;;5082680;28;20241;-85
2023/09/12 05:03:46;;;;;;;0.00;0.00;;;;;;;;;;5090253;28;20231;-85
2023/09/12 05:06:13;;;;;;;0.10;0.10;;;;;;;;;;5081803;28;20248;-85
2023/09/12 05:08:39;;;;;;;0.00;0.00;;;;;;;;;;5090734;28;20272;-84
2023/09/12 05:11:07;;;;;;;0.10;0.10;;;;;;;;;;5082726;28;20289;-84
2023/09/12 05:13:33;;;;;;;0.10;0.10;;;;;;;;;;5095697;28;20215;-84
2023/09/12 05:15:59;;;;;;;0.30;0.30;;;;;;;;;;5083975;28;20264;-84
2023/09/12 05:18:26;;;;;;;0.08;0.08;;;;;;;;;;5096238;28;20431;-84
2023/09/12 05:20:52;;;;;;;0.10;0.10;;;;;;;;;;5082753;28;20256;-83
2023/09/12 05:23:18;;;;;;;0.00;0.00;;;;;;;;;;5097587;28;20249;-85
2023/09/12 05:25:45;;;;;;;0.05;0.05;;;;;;;;;;5082175;28;20317;-85
2023/09/12 05:28:15;;;;;;;0.10;0.10;;;;;;;;;;5098258;28;20193;-84
2023/09/12 05:30:42;;;;;;;0.10;0.10;;;;;;;;;;5081663;28;20240;-84
2023/09/12 05:33:08;;;;;;;0.10;0.10;;;;;;;;;;5098810;28;20241;-85
2023/09/12 05:35:35;;;;;;;0.00;0.00;;;;;;;;;;5080593;28;20242;-84
2023/09/12 05:38:01;;;;;;;0.00;0.00;;;;;;;;;;5099540;28;20193;-81
2023/09/12 05:40:27;;;;;;;0.10;0.10;;;;;;;;;;5079995;28;20292;-83
2023/09/12 05:42:54;;;;;;;0.10;0.10;;;;;;;;;;5100081;28;20274;-83
2023/09/12 05:45:22;;;;;;;0.10;0.10;;;;;;;;;;5078751;28;20237;-83
2023/09/12 05:47:48;;;;;;;0.00;0.00;;;;;;;;;;5101292;28;20193;-83
2023/09/12 05:50:15;;;;;;;0.10;0.10;;;;;;;;;;5077830;28;20205;-83
2023/09/12 05:52:42;;;;;;;0.10;0.10;;;;;;;;;;5101363;28;20242;-83
2023/09/12 05:55:09;;;;;;;0.05;0.05;;;;;;;;;;5078804;28;20219;-82
2023/09/12 05:57:35;;;;;;;0.10;0.10;;;;;;;;;;5102186;28;20217;-83
2023/09/12 06:00:04;;;;;;;0.10;0.10;;;;;;;;;;5087311;28;20354;-83
2023/09/12 06:02:33;;;;;;;0.10;0.10;;;;;;;;;;5092498;28;20235;-83
2023/09/12 06:05:00;;;;;;;0.10;0.10;;;;;;;;;;5087147;28;20210;-83
2023/09/12 06:07:26;;;;;;;0.10;0.10;;;;;;;;;;5092291;28;20261;-84
2023/09/12 06:09:52;;;;;;;0.00;0.00;;;;;;;;;;5087031;28;20212;-84
2023/09/12 06:12:19;;;;;;;0.03;0.03;;;;;;;;;;5092224;28;20233;-84
2023/09/12 06:14:45;;;;;;;0.00;0.00;;;;;;;;;;5086833;28;20250;-84
2023/09/12 06:17:11;;;;;;;0.63;0.63;;;;;;;;;;5091991;28;20304;-83
2023/09/12 06:19:40;;;;;;;0.08;0.08;;;;;;;;;;5086732;28;20206;-82
2023/09/12 06:22:06;;;;;;;0.10;0.10;;;;;;;;;;5091087;28;20236;-79
2023/09/12 06:24:32;;;;;;;0.17;0.17;;;;;;;;;;5086764;28;20225;-77
2023/09/12 06:26:59;;;;;;;0.10;0.10;;;;;;;;;;5090467;28;20566;-84
2023/09/12 06:29:25;;;;;;;0.10;0.10;;;;;;;;;;5087669;28;20206;-82
2023/09/12 06:31:52;;;;;;;0.17;0.17;;;;;;;;;;5089568;28;20532;-80
2023/09/12 06:34:18;;;;;;;0.00;0.00;;;;;;;;;;5088620;28;20267;-82
2023/09/12 06:36:46;;;;;;;0.10;0.10;;;;;;;;;;5088476;28;20316;-82
2023/09/12 06:39:12;;;;;;;1.52;1.42;;;;;;;;;;5089306;28;20214;-82
2023/09/12 06:41:39;;;;;;;0.08;0.08;;;;;;;;;;5087855;28;20242;-82
2023/09/12 06:44:06;;;;;;;0.10;0.10;;;;;;;;;;5090151;28;20440;-82
2023/09/12 06:46:35;;;;;;;0.10;0.10;;;;;;;;;;5086754;28;20238;-82
2023/09/12 06:49:02;;;;;;;0.10;0.10;;;;;;;;;;5090569;28;20520;-81
2023/09/12 06:51:28;;;;;;;0.03;0.03;;;;;;;;;;5085949;28;20271;-81
2023/09/12 06:53:56;;;;;;;0.03;0.03;;;;;;;;;;5091099;28;20459;-79
2023/09/12 06:56:22;;;;;;;0.00;0.00;;;;;;;;;;5085489;28;20307;-83
2023/09/12 06:58:49;;;;;;;0.00;0.00;;;;;;;;;;5091686;28;20206;-82
2023/09/12 07:01:15;;;;;;;1.10;1.10;;;;;;;;;;5084215;28;20294;-83
2023/09/12 07:03:41;;;;;;;0.03;0.03;;;;;;;;;;5092438;28;20209;-82
2023/09/12 07:06:08;;;;;;;0.10;0.10;;;;;;;;;;5083157;28;20268;-82
2023/09/12 07:08:35;;;;;;;0.10;0.10;;;;;;;;;;5093400;28;20238;-82
2023/09/12 07:11:05;;;;;;;0.10;0.10;;;;;;;;;;5082215;28;20245;-79
2023/09/12 07:13:32;;;;;;;0.00;0.00;;;;;;;;;;5093662;28;20226;-82
2023/09/12 07:15:58;;;;;;;0.10;0.10;;;;;;;;;;5081603;28;20256;-81
2023/09/12 07:18:25;;;;;;;0.10;0.10;;;;;;;;;;5094470;28;20406;-82
2023/09/12 07:20:57;;;;;;;0.20;0.20;;;;;;;;;;5080566;28;20306;-82
2023/09/12 07:23:23;;;;;;;0.00;0.00;;;;;;;;;;5094414;28;20219;-80
2023/09/12 07:25:50;;;;;;;0.00;0.00;;;;;;;;;;5080369;28;20273;-80
2023/09/12 07:28:18;;;;;;;0.32;0.32;;;;;;;;;;5095127;28;20210;-79
2023/09/12 07:30:46;;;;;;;0.43;0.43;;;;;;;;;;5079750;28;20247;-80
2023/09/12 07:33:12;;;;;;;0.00;0.00;;;;;;;;;;5094584;28;20296;-79
2023/09/12 07:35:39;;;;;;;3.05;2.83;;;;;;;;;;5078669;28;20262;-79
2023/09/12 07:38:05;;;;;;;1.27;1.27;;;;;;;;;;5096754;28;20436;-79
2023/09/12 07:40:32;;;;;;;0.10;0.10;;;;;;;;;;5078161;28;20241;-78
2023/09/12 07:42:58;;;;;;;0.00;0.00;;;;;;;;;;5098083;28;20456;-79
2023/09/12 07:45:26;;;;;;;0.10;0.10;;;;;;;;;;5076915;28;20203;-80
2023/09/12 07:47:52;;;;;;;0.10;0.10;;;;;;;;;;5098242;28;20270;-80
2023/09/12 07:50:18;;;;;;;0.05;0.05;;;;;;;;;;5075929;28;20436;-79
2023/09/12 07:52:45;;;;;;;0.20;0.20;;;;;;;;;;5098974;28;20211;-81
2023/09/12 07:55:11;;;;;;;0.00;0.00;;;;;;;;;;5075066;28;20277;-81
2023/09/12 07:57:38;;;;;;;0.00;0.00;;;;;;;;;;5100005;28;20230;-80
2023/09/12 08:00:10;;;;;;;0.00;0.00;;;;;;;;;;5084861;28;20294;-80
2023/09/12 08:02:37;;;;;;;0.00;0.00;;;;;;;;;;5073018;28;20210;-80
2023/09/12 08:05:04;;;;;;;0.00;0.00;;;;;;;;;;5084875;28;20255;-79
2023/09/12 08:07:30;;;;;;;0.10;0.10;;;;;;;;;;5089964;28;20249;-80
2023/09/12 08:09:57;;;;;;;0.00;0.00;;;;;;;;;;5084647;28;20211;-79
2023/09/12 08:12:25;;;;;;;0.10;0.10;;;;;;;;;;5089678;28;20241;-80
2023/09/12 08:14:51;;;;;;;0.00;0.00;;;;;;;;;;5084615;28;20384;-80
2023/09/12 08:17:18;;;;;;;0.10;0.10;;;;;;;;;;5089651;28;20457;-80
2023/09/12 08:19:46;;;;;;;0.00;0.00;;;;;;;;;;5084476;28;20253;-80
2023/09/12 08:22:14;;;;;;;0.00;0.00;;;;;;;;;;5089686;28;20287;-80
2023/09/12 08:24:40;;;;;;;0.00;0.00;;;;;;;;;;5083921;28;20321;-80
2023/09/12 08:27:07;;;;;;;0.00;0.00;;;;;;;;;;5089555;28;20247;-81
2023/09/12 08:29:34;;;;;;;0.03;0.03;;;;;;;;;;5084348;28;20223;-81
2023/09/12 08:32:00;;;;;;;0.00;0.00;;;;;;;;;;5088336;28;20249;-81
2023/09/12 08:34:27;;;;;;;0.00;0.00;;;;;;;;;;5085139;28;20381;-82
2023/09/12 08:36:55;;;;;;;0.00;0.00;;;;;;;;;;5087297;28;20257;-82
2023/09/12 08:39:24;;;;;;;0.00;0.00;;;;;;;;;;5085682;28;20217;-81
2023/09/12 08:41:50;;;;;;;0.00;0.00;;;;;;;;;;5086832;28;20258;-81
2023/09/12 08:44:17;;;;;;;0.00;0.00;;;;;;;;;;5086057;28;20432;-78
2023/09/12 08:46:43;;;;;;;0.00;0.00;;;;;;;;;;5085935;28;20531;-82
2023/09/12 08:49:10;;;;;;;0.00;0.00;;;;;;;;;;5087205;28;20238;-80
2023/09/12 08:51:39;;;;;;;0.00;0.00;;;;;;;;;;5085042;28;20257;-79
2023/09/12 08:54:07;;;;;;;0.00;0.00;;;;;;;;;;5087507;28;20223;-79
2023/09/12 08:56:35;;;;;;;0.00;0.00;;;;;;;;;;5084658;28;20491;-80
2023/09/12 08:59:02;;;;;;;0.00;0.00;;;;;;;;;;5087970;28;20437;-78
2023/09/12 09:01:31;;;;;;;0.00;0.00;;;;;;;;;;5083915;28;20476;-78
2023/09/12 09:03:57;;;;;;;1.52;1.42;;;;;;;;;;5088817;28;20328;-78
2023/09/12 09:06:24;;;;;;;0.00;0.00;;;;;;;;;;5083160;28;20255;-78
2023/09/12 09:08:50;;;;;;;0.00;0.00;;;;;;;;;;5089309;28;20203;-76
2023/09/12 09:11:18;;;;;;;0.00;0.00;;;;;;;;;;5082246;28;20638;-75
2023/09/12 09:13:45;;;;;;;0.00;0.00;;;;;;;;;;5089771;28;20302;-76
2023/09/12 09:16:12;;;;;;;0.10;0.10;;;;;;;;;;5081378;28;20238;-75
2023/09/12 09:18:52;;;;;;;0.10;0.10;;;;;;;;;;5090732;28;20207;-75
2023/09/12 09:21:19;;;;;;;0.15;0.15;;;;;;;;;;5082345;28;20452;-76
2023/09/12 09:23:46;;;;;;;0.00;0.00;;;;;;;;;;5089883;28;20220;-77
2023/09/12 09:26:12;;;;;;;0.00;0.00;;;;;;;;;;5081520;28;20261;-77
2023/09/12 09:28:40;;;;;;;0.00;0.00;;;;;;;;;;5090495;28;20274;-76
2023/09/12 09:31:10;;;;;;;0.00;0.00;;;;;;;;;;5080667;28;20412;-75
2023/09/12 09:33:38;;;;;;;0.00;0.00;;;;;;;;;;5090830;28;20255;-76
2023/09/12 09:36:05;;;;;;;0.00;0.00;;;;;;;;;;5080176;28;20293;-76
2023/09/12 09:38:31;;;;;;;0.10;0.10;;;;;;;;;;5091488;28;20452;-77
2023/09/12 09:40:58;;;;;;;0.00;0.00;;;;;;;;;;5079575;28;20423;-77
2023/09/12 09:43:24;;;;;;;0.00;0.00;;;;;;;;;;5092425;28;20266;-78
2023/09/12 09:45:53;;;;;;;0.00;0.00;;;;;;;;;;5078591;28;20238;-79
2023/09/12 09:48:20;;;;;;;0.00;0.00;;;;;;;;;;5092749;28;20210;-79
2023/09/12 09:50:46;;;;;;;0.00;0.00;;;;;;;;;;5077845;28;20248;-79
2023/09/12 09:53:12;;;;;;;0.00;0.00;;;;;;;;;;5093515;28;20229;-78
2023/09/12 09:55:39;;;;;;;0.00;0.00;;;;;;;;;;5077007;28;20258;-78
2023/09/12 09:58:06;;;;;;;0.00;0.00;;;;;;;;;;5097808;28;20210;-78
2023/09/12 10:00:34;;;;;;;0.00;0.00;;;;;;;;;;5079978;28;20280;-79
2023/09/12 10:03:04;;;;;;;0.00;0.00;;;;;;;;;;5099168;28;20231;-79
2023/09/12 10:05:32;;;;;;;0.00;0.00;;;;;;;;;;5079730;28;20306;-79
2023/09/12 10:08:00;;;;;;;0.00;0.00;;;;;;;;;;5098972;28;20191;-79
2023/09/12 10:10:27;;;;;;;0.00;0.00;;;;;;;;;;5079092;28;20204;-79
2023/09/12 10:12:56;;;;;;;0.10;0.10;;;;;;;;;;5099490;28;20278;-79
2023/09/12 10:15:23;;;;;;;0.00;0.00;;;;;;;;;;5078268;28;20234;-78
2023/09/12 10:17:55;;;;;;;0.10;0.10;;;;;;;;;;5100335;28;20230;-79
2023/09/12 10:20:25;;;;;;;0.00;0.00;;;;;;;;;;5078168;28;20550;-79
2023/09/12 10:22:55;;;;;;;0.00;0.00;;;;;;;;;;5099851;28;20219;-78
2023/09/12 10:25:22;;;;;;;0.00;0.00;;;;;;;;;;5078184;28;20235;-78
2023/09/12 10:27:49;;;;;;;0.00;0.00;;;;;;;;;;5099999;28;20196;-79
2023/09/12 10:30:16;;;;;;;0.00;0.00;;;;;;;;;;5077176;28;20203;-79
2023/09/12 10:32:42;;;;;;;0.00;0.00;;;;;;;;;;5100991;28;20198;-78
2023/09/12 10:35:09;;;;;;;0.00;0.00;;;;;;;;;;5076350;28;20210;-78
2023/09/12 10:37:38;;;;;;;0.00;0.00;;;;;;;;;;5101738;28;20376;-78
2023/09/12 10:40:07;;;;;;;0.00;0.00;;;;;;;;;;5086375;28;20261;-79
2023/09/12 10:42:34;;;;;;;0.10;0.10;;;;;;;;;;5074730;28;20282;-79
2023/09/12 10:45:01;;;;;;;0.00;0.00;;;;;;;;;;5085827;28;20238;-79
2023/09/12 10:47:28;;;;;;;0.00;0.00;;;;;;;;;;5091255;28;20247;-79
2023/09/12 10:49:55;;;;;;;0.00;0.00;;;;;;;;;;5086295;28;20385;-79
2023/09/12 10:52:25;;;;;;;0.05;0.05;;;;;;;;;;5091201;28;20273;-78
2023/09/12 10:54:53;;;;;;;0.00;0.00;;;;;;;;;;5086136;28;20246;-76
2023/09/12 10:57:20;;;;;;;0.00;0.00;;;;;;;;;;5091096;28;20274;-77
2023/09/12 11:00:08;;;;;;;0.10;0.10;;;;;;;;;;5085671;28;20270;-77
2023/09/12 11:02:35;;;;;;;0.03;0.03;;;;;;;;;;5073999;28;20235;-77
2023/09/12 11:05:03;;;;;;;0.00;0.00;;;;;;;;;;5085905;28;20222;-77
2023/09/12 11:07:33;;;;;;;0.00;0.00;;;;;;;;;;5090661;28;20621;-77
2023/09/12 11:10:21;;;;;;;0.00;0.00;;;;;;;;;;5085075;28;20203;-78
2023/09/12 11:12:48;;;;;;;0.10;0.10;;;;;;;;;;5085569;28;20211;-79
2023/09/12 11:15:15;;;;;;;0.00;0.00;;;;;;;;;;5076132;28;20261;-79
2023/09/12 11:17:42;;;;;;;0.00;0.00;;;;;;;;;;5100295;28;20192;-79
2023/09/12 11:20:10;;;;;;;0.10;0.10;;;;;;;;;;5082728;28;20204;-78
2023/09/12 11:22:39;;;;;;;0.00;0.00;;;;;;;;;;5100939;28;20420;-78
2023/09/12 11:25:05;;;;;;;0.00;0.00;;;;;;;;;;5085431;28;20567;-77
2023/09/12 11:27:34;;;;;;;0.00;0.00;;;;;;;;;;5090518;28;20251;-78
2023/09/12 11:30:04;;;;;;;0.00;0.00;;;;;;;;;;5085487;28;20207;-79
2023/09/12 11:32:31;;;;;;;0.00;0.00;;;;;;;;;;5090774;28;20311;-79
2023/09/12 11:34:58;;;;;;;0.00;0.00;;;;;;;;;;5085388;28;20291;-83
2023/09/12 11:37:25;;;;;;;0.00;0.00;;;;;;;;;;5090390;28;20305;-83
2023/09/12 11:39:52;;;;;;;0.00;0.00;;;;;;;;;;5085320;28;20405;-82
2023/09/12 11:42:19;;;;;;;0.00;0.00;;;;;;;;;;5090259;28;20246;-83
2023/09/12 11:44:47;;;;;;;0.00;0.00;;;;;;;;;;5085120;28;20200;-83
2023/09/12 11:47:15;;;;;;;0.00;0.00;;;;;;;;;;5090352;28;20262;-82
2023/09/12 11:49:42;;;;;;;0.00;0.00;;;;;;;;;;5084653;28;20210;-83
2023/09/12 11:52:09;;;;;;;0.00;0.00;;;;;;;;;;5090161;28;20254;-81
2023/09/12 11:54:36;;;;;;;0.00;0.00;;;;;;;;;;5084864;28;20468;-82
2023/09/12 11:57:03;;;;;;;0.00;0.00;;;;;;;;;;5089175;28;20269;-82
2023/09/12 11:59:29;;;;;;;0.00;0.00;;;;;;;;;;5085435;28;20271;-82
2023/09/12 12:01:57;;;;;;;0.00;0.00;;;;;;;;;;5088200;28;20245;-83
2023/09/12 12:04:24;;;;;;;0.00;0.00;;;;;;;;;;5085961;28;20235;-82
2023/09/12 12:06:51;;;;;;;0.00;0.00;;;;;;;;;;5087758;28;20457;-82
2023/09/12 12:09:19;;;;;;;0.00;0.00;;;;;;;;;;5086627;28;20398;-82
2023/09/12 12:11:46;;;;;;;0.00;0.00;;;;;;;;;;5086801;28;20242;-81
2023/09/12 12:14:13;;;;;;;0.00;0.00;;;;;;;;;;5086647;28;20227;-81
2023/09/12 12:16:40;;;;;;;0.00;0.00;;;;;;;;;;5086241;28;20238;-81
2023/09/12 12:19:08;;;;;;;0.00;0.00;;;;;;;;;;5087356;28;20246;-80
2023/09/12 12:21:34;;;;;;;0.00;0.00;;;;;;;;;;5085033;28;20307;-82
2023/09/12 12:24:01;;;;;;;0.00;0.00;;;;;;;;;;5088521;28;20257;-82
2023/09/12 12:26:27;;;;;;;0.65;0.65;;;;;;;;;;5084234;28;20254;-82
2023/09/12 12:28:54;;;;;;;0.00;0.00;;;;;;;;;;5089202;28;20199;-82
2023/09/12 12:31:21;;;;;;;0.00;0.00;;;;;;;;;;5083230;28;20254;-81
2023/09/12 12:33:51;;;;;;;0.00;0.00;;;;;;;;;;5090078;28;20255;-82
2023/09/12 12:36:19;;;;;;;0.43;0.43;;;;;;;;;;5082595;28;20456;-82
2023/09/12 12:38:47;;;;;;;0.00;0.00;;;;;;;;;;5090440;28;20215;-82
2023/09/12 12:41:14;;;;;;;0.00;0.00;;;;;;;;;;5082157;28;20242;-82
2023/09/12 12:43:40;;;;;;;0.00;0.00;;;;;;;;;;5090980;28;20436;-82
2023/09/12 12:46:10;;;;;;;0.00;0.00;;;;;;;;;;5081140;28;20258;-82
2023/09/12 12:48:37;;;;;;;0.00;0.00;;;;;;;;;;5091190;28;20234;-82
2023/09/12 12:51:16;;;;;;;0.00;0.00;;;;;;;;;;5080582;28;20242;-81
2023/09/12 12:53:44;;;;;;;0.00;0.00;;;;;;;;;;5090136;28;20235;-82
2023/09/12 12:56:12;;;;;;;0.00;0.00;;;;;;;;;;5081706;28;20246;-81
2023/09/12 12:58:38;;;;;;;0.00;0.00;;;;;;;;;;5090979;28;20203;-81
2023/09/12 13:01:05;;;;;;;0.00;0.00;;;;;;;;;;5080373;28;20302;-81
2023/09/12 13:03:32;;;;;;;0.00;0.00;;;;;;;;;;5091765;28;20199;-82
2023/09/12 13:05:58;;;;;;;0.00;0.00;;;;;;;;;;5079728;28;20238;-83
2023/09/12 13:08:25;;;;;;;0.00;0.00;;;;;;;;;;5092580;28;20203;-83
2023/09/12 13:10:53;;;;;;;0.00;0.00;;;;;;;;;;5078941;28;20265;-83
2023/09/12 13:13:19;;;;;;;0.00;0.00;;;;;;;;;;5093091;28;20219;-82
2023/09/12 13:15:46;;;;;;;0.10;0.10;;;;;;;;;;5078204;28;20301;-83
2023/09/12 13:18:12;;;;;;;0.00;0.00;;;;;;;;;;5093864;28;20271;-83
2023/09/12 13:20:38;;;;;;;0.00;0.00;;;;;;;;;;5077146;28;20555;-82
2023/09/12 13:23:05;;;;;;;0.00;0.00;;;;;;;;;;5095148;28;20270;-82
2023/09/12 13:25:31;;;;;;;0.00;0.00;;;;;;;;;;5076558;28;20301;-82
2023/09/12 13:27:59;;;;;;;0.00;0.00;;;;;;;;;;5095844;28;20234;-83
2023/09/12 13:30:25;;;;;;;0.00;0.00;;;;;;;;;;5075669;28;20545;-82
2023/09/12 13:32:52;;;;;;;0.00;0.00;;;;;;;;;;5099804;28;20192;-81
2023/09/12 13:35:18;;;;;;;0.20;0.20;;;;;;;;;;5078661;28;20317;-83
2023/09/12 13:37:44;;;;;;;0.00;0.00;;;;;;;;;;5101963;28;20263;-82
2023/09/12 13:40:11;;;;;;;0.00;0.00;;;;;;;;;;5077595;28;20274;-81
2023/09/12 13:42:37;;;;;;;0.05;0.05;;;;;;;;;;5102615;28;20499;-81
2023/09/12 13:45:06;;;;;;;0.00;0.00;;;;;;;;;;5087490;28;20227;-81
2023/09/12 13:47:33;;;;;;;0.00;0.00;;;;;;;;;;5075569;28;20207;-81
2023/09/12 13:49:59;;;;;;;0.00;0.00;;;;;;;;;;5087386;28;20226;-81
2023/09/12 13:52:27;;;;;;;0.00;0.00;;;;;;;;;;5092570;28;20462;-83
2023/09/12 13:54:53;;;;;;;0.00;0.00;;;;;;;;;;5087521;28;20266;-82
2023/09/12 13:57:20;;;;;;;0.00;0.00;;;;;;;;;;5092237;28;20243;-80
2023/09/12 13:59:46;;;;;;;0.00;0.00;;;;;;;;;;5087270;28;20385;-80
2023/09/12 14:02:14;;;;;;;0.00;0.00;;;;;;;;;;5092134;28;20251;-81
2023/09/12 14:04:41;;;;;;;0.00;0.00;;;;;;;;;;5087050;28;20391;-81
2023/09/12 14:07:07;;;;;;;0.00;0.00;;;;;;;;;;5091864;28;20257;-80
2023/09/12 14:09:33;;;;;;;0.00;0.00;;;;;;;;;;5086768;28;20204;-80
2023/09/12 14:12:00;;;;;;;0.00;0.00;;;;;;;;;;5091019;28;20258;-82
2023/09/12 14:14:26;;;;;;;0.00;0.00;;;;;;;;;;5087547;28;20436;-80
2023/09/12 14:16:53;;;;;;;0.00;0.00;;;;;;;;;;5089919;28;20242;-78
2023/09/12 14:19:21;;;;;;;0.00;0.00;;;;;;;;;;5088421;28;20270;-78
2023/09/12 14:21:47;;;;;;;0.00;0.00;;;;;;;;;;5089022;28;20304;-79
2023/09/12 14:24:14;;;;;;;0.00;0.00;;;;;;;;;;5088922;28;20454;-78
2023/09/12 14:26:40;;;;;;;0.00;0.00;;;;;;;;;;5088030;28;20255;-78
2023/09/12 14:29:07;;;;;;;0.45;0.45;;;;;;;;;;5090148;28;20210;-78
2023/09/12 14:31:33;;;;;;;0.00;0.00;;;;;;;;;;5087121;28;20235;-79
2023/09/12 14:33:59;;;;;;;0.00;0.00;;;;;;;;;;5090741;28;20499;-79
2023/09/12 14:36:27;;;;;;;0.00;0.00;;;;;;;;;;5085918;28;20245;-78
2023/09/12 14:38:53;;;;;;;0.15;0.15;;;;;;;;;;5091505;28;20239;-79
2023/09/12 14:41:20;;;;;;;0.00;0.00;;;;;;;;;;5085097;28;20446;-78
2023/09/12 14:43:46;;;;;;;0.00;0.00;;;;;;;;;;5092133;28;20203;-78